sim
Sign-in with your pilot id or email,
or register
Callsign
Passwort

Schedule Details

Flight Number: OEO8828
Departure: Leipzig Halle Airport (EDDP) at 12:20
Arrival: Bremen Airport (EDDW) at 13:30

Weather Information
Getting current METAR information for EDDP 101920Z 30011KT 9999 FEW020 15/10 Q1016 NOSIG
Getting current METAR information for EDDW 101920Z 29008KT 9999 FEW030 14/10 Q1016 NOSIG

Schedule Frequency

Route Map